Time;durP1;ratioP1;P1;durP2;ratioP2;P2;SDS_P1;SDS_P2;PMS_P1;PMS_P2;Temp;Humidity;BMP_temperature;BMP_pressure;BME280_temperature;BME280_humidity;BME280_pressure;Samples;Min_cycle;Max_cycle;Signal;HPM_P1;HPM_P2
2022/11/04 00:02:04;;;;;;;1.02;0.70;;;10.40;99.90;;;;;;7349726;32;20130;-58
2022/11/04 00:06:07;;;;;;;1.30;0.75;;;10.40;99.90;;;;;;7350312;32;20119;-59
2022/11/04 00:10:09;;;;;;;0.85;0.62;;;10.30;99.90;;;;;;7352857;32;20103;-58
2022/11/04 00:14:12;;;;;;;1.15;0.70;;;10.30;99.90;;;;;;7352016;32;20134;-58
2022/11/04 00:18:14;;;;;;;1.95;0.90;;;10.20;99.90;;;;;;7349605;32;20225;-58
2022/11/04 00:33:24;;;;;;;7.45;1.17;;;10.20;99.90;;;;;;7347566;32;20115;-59
2022/11/04 00:35:21;;;;;;;4.35;1.15;;;10.30;99.90;;;;;;7349781;32;20234;-59
2022/11/04 00:39:23;;;;;;;1.55;0.85;;;10.30;99.90;;;;;;7349195;32;20570;-59
2022/11/04 00:43:25;;;;;;;1.77;1.10;;;10.30;99.90;;;;;;7344802;32;20130;-58
2022/11/04 00:47:27;;;;;;;2.97;1.23;;;10.30;99.90;;;;;;7350589;32;20126;-58
2022/11/04 00:51:28;;;;;;;2.45;1.00;;;10.40;99.90;;;;;;7348378;32;20222;-59
2022/11/04 00:55:30;;;;;;;3.22;1.48;;;10.40;99.90;;;;;;7347672;32;20104;-58
2022/11/04 00:59:32;;;;;;;2.53;1.10;;;10.40;99.90;;;;;;7347535;32;20130;-59
2022/11/04 01:03:33;;;;;;;1.80;1.23;;;10.40;99.90;;;;;;7345158;32;20254;-59
2022/11/04 01:07:35;;;;;;;3.72;1.52;;;10.30;99.90;;;;;;7352135;32;20205;-59
2022/11/04 01:11:44;;;;;;;4.68;1.45;;;10.30;99.90;;;;;;7352621;32;20856;-58
2022/11/04 01:15:46;;;;;;;2.12;1.20;;;10.20;99.90;;;;;;7354170;32;20107;-58
2022/11/04 01:19:47;;;;;;;6.75;1.65;;;10.30;99.90;;;;;;7354913;32;20118;-59
2022/11/04 01:23:49;;;;;;;5.75;1.85;;;10.30;99.90;;;;;;7350327;32;20115;-60
2022/11/04 01:27:51;;;;;;;2.37;1.52;;;10.30;99.90;;;;;;7354424;32;20544;-60
2022/11/04 01:31:52;;;;;;;3.53;2.03;;;10.30;99.90;;;;;;7349414;32;20143;-60
2022/11/04 01:35:58;;;;;;;4.70;2.12;;;10.30;99.90;;;;;;7351304;32;20208;-59
2022/11/04 01:40:00;;;;;;;5.25;2.00;;;10.30;99.90;;;;;;7347994;32;20598;-60
2022/11/04 01:44:40;;;;;;;4.30;2.10;;;10.30;99.90;;;;;;7349676;32;20210;-60
2022/11/04 01:48:42;;;;;;;2.95;1.80;;;10.30;99.90;;;;;;7349127;32;20184;-59
2022/11/04 01:52:57;;;;;;;5.60;2.33;;;10.30;99.90;;;;;;7354587;32;20232;-59
2022/11/04 01:57:01;;;;;;;3.75;1.80;;;10.30;99.90;;;;;;7348875;32;20120;-59
2022/11/04 02:01:03;;;;;;;3.62;1.60;;;10.20;99.90;;;;;;7348592;32;20182;-59
2022/11/04 02:05:05;;;;;;;6.18;1.80;;;10.10;99.90;;;;;;7350259;32;20602;-59
2022/11/04 02:09:06;;;;;;;3.92;1.62;;;10.10;99.90;;;;;;7352348;32;20103;-59
2022/11/04 02:13:13;;;;;;;4.23;1.60;;;10.10;99.90;;;;;;7353113;32;20129;-59
2022/11/04 02:17:18;;;;;;;9.20;1.60;;;9.90;99.90;;;;;;7352011;32;20737;-60
2022/11/04 02:21:57;;;;;;;4.53;1.50;;;9.90;99.90;;;;;;7348633;32;20152;-59
2022/11/04 02:26:29;;;;;;;3.78;1.23;;;9.80;99.90;;;;;;7352128;32;20189;-60
2022/11/04 02:30:40;;;;;;;5.55;1.35;;;9.80;99.90;;;;;;7349252;32;20107;-59
2022/11/04 02:34:55;;;;;;;4.40;1.30;;;9.70;99.90;;;;;;7348155;32;20177;-59
2022/11/04 02:39:26;;;;;;;3.40;1.60;;;9.70;99.90;;;;;;7351334;32;20129;-59
2022/11/04 02:43:48;;;;;;;5.18;1.30;;;9.70;99.90;;;;;;7345374;32;20154;-58
2022/11/04 02:47:56;;;;;;;5.35;1.40;;;9.60;99.90;;;;;;7351564;32;20135;-59
2022/11/04 02:52:14;;;;;;;5.68;1.30;;;9.50;99.90;;;;;;7348602;32;20150;-58
2022/11/04 02:56:20;;;;;;;6.35;1.20;;;9.60;99.90;;;;;;7349130;32;20178;-58
2022/11/04 03:00:21;;;;;;;6.72;1.37;;;9.50;99.90;;;;;;7345498;32;20141;-58
2022/11/04 03:04:30;;;;;;;4.85;1.10;;;9.50;99.90;;;;;;7350210;32;20579;-59
2022/11/04 03:08:37;;;;;;;3.87;0.98;;;9.40;99.90;;;;;;7354578;32;20563;-59
2022/11/04 03:12:45;;;;;;;5.33;1.07;;;9.30;99.90;;;;;;7345332;32;20146;-59
2022/11/04 03:16:51;;;;;;;7.37;1.58;;;9.30;99.90;;;;;;7347499;32;20165;-59
2022/11/04 03:20:57;;;;;;;9.88;2.25;;;9.20;99.90;;;;;;7351185;32;20513;-59
2022/11/04 03:25:00;;;;;;;5.20;1.20;;;9.10;99.90;;;;;;7351075;32;20111;-58
2022/11/04 03:29:24;;;;;;;6.65;1.83;;;9.10;99.90;;;;;;7351722;32;20111;-58
2022/11/04 03:33:38;;;;;;;4.22;1.42;;;9.10;99.90;;;;;;7346564;32;20206;-58
2022/11/04 03:37:41;;;;;;;5.03;1.52;;;9.00;99.90;;;;;;7354656;32;20129;-58
2022/11/04 03:41:49;;;;;;;4.18;1.50;;;8.90;99.90;;;;;;7345756;32;20103;-58
2022/11/04 03:45:52;;;;;;;6.30;1.67;;;8.80;99.90;;;;;;7345662;32;20137;-58
2022/11/04 03:50:16;;;;;;;9.07;2.00;;;8.70;99.90;;;;;;7354290;32;20623;-58
2022/11/04 03:54:19;;;;;;;6.25;1.80;;;8.70;99.90;;;;;;7343490;32;20110;-58
2022/11/04 03:58:26;;;;;;;8.15;1.65;;;8.60;99.90;;;;;;7344874;32;20798;-58
2022/11/04 04:02:51;;;;;;;9.95;2.10;;;8.70;99.90;;;;;;7345974;32;20119;-58
2022/11/04 04:07:11;;;;;;;5.37;1.70;;;8.60;99.90;;;;;;7348239;32;20135;-58
2022/11/04 04:11:39;;;;;;;8.50;1.83;;;8.50;99.90;;;;;;7349845;32;20119;-57
2022/11/04 04:16:06;;;;;;;4.55;1.62;;;8.30;99.90;;;;;;7343408;32;20120;-58
2022/11/04 04:20:19;;;;;;;4.85;1.73;;;8.30;99.90;;;;;;7344055;32;20222;-58
2022/11/04 04:28:46;;;;;;;9.65;1.62;;;8.10;99.90;;;;;;7347551;32;20115;-58
2022/11/04 04:33:03;;;;;;;8.23;1.77;;;8.00;99.90;;;;;;7350156;32;20190;-58
2022/11/04 04:37:13;;;;;;;6.03;1.95;;;7.90;99.90;;;;;;7351561;32;20137;-58
2022/11/04 04:45:53;;;;;;;7.95;1.48;;;8.00;99.90;;;;;;7353310;32;20111;-58
2022/11/04 04:49:57;;;;;;;8.93;1.73;;;8.00;99.90;;;;;;7348266;32;20133;-58
2022/11/04 04:53:59;;;;;;;11.40;1.60;;;8.10;99.90;;;;;;7350527;32;20141;-58
2022/11/04 04:58:00;;;;;;;6.97;1.58;;;8.20;99.90;;;;;;7354420;32;20108;-58
2022/11/04 05:02:02;;;;;;;4.40;1.20;;;8.30;99.90;;;;;;7343998;32;20107;-58
2022/11/04 05:06:04;;;;;;;8.82;1.90;;;8.40;99.90;;;;;;7348361;32;20628;-58
2022/11/04 05:10:08;;;;;;;6.57;1.17;;;8.40;99.90;;;;;;7349104;32;20142;-58
2022/11/04 05:14:10;;;;;;;9.32;1.40;;;8.40;99.90;;;;;;7346126;32;20107;-58
2022/11/04 05:18:11;;;;;;;5.22;1.40;;;8.40;99.90;;;;;;7344550;32;20143;-58
2022/11/04 05:22:13;;;;;;;9.43;1.40;;;8.30;99.90;;;;;;7350216;32;20103;-58
2022/11/04 05:26:15;;;;;;;4.87;1.27;;;8.20;99.90;;;;;;7343900;32;20189;-58
2022/11/04 05:30:16;;;;;;;5.97;1.10;;;8.10;99.90;;;;;;7338311;32;20148;-58
2022/11/04 05:34:18;;;;;;;4.75;1.52;;;8.00;99.90;;;;;;7341560;32;20591;-58
2022/11/04 05:38:20;;;;;;;7.18;1.92;;;8.00;99.90;;;;;;7345055;32;20113;-58
2022/11/04 05:42:21;;;;;;;7.43;1.37;;;7.90;99.90;;;;;;7351112;32;20164;-58
2022/11/04 05:46:24;;;;;;;6.43;1.77;;;7.80;99.90;;;;;;7346422;32;20218;-58
2022/11/04 05:50:26;;;;;;;12.57;1.52;;;7.70;99.90;;;;;;7349941;32;20126;-58
2022/11/04 05:54:27;;;;;;;10.73;1.92;;;7.60;99.90;;;;;;7351094;32;20141;-58
2022/11/04 05:58:29;;;;;;;4.32;1.60;;;7.50;99.90;;;;;;7345921;32;20134;-58
2022/11/04 06:02:31;;;;;;;7.50;1.62;;;7.50;99.90;;;;;;7352848;32;20215;-58
2022/11/04 06:06:35;;;;;;;18.77;10.77;;;7.50;99.90;;;;;;7346359;32;20559;-58
2022/11/04 06:10:37;;;;;;;9.70;3.05;;;7.40;99.90;;;;;;7342285;32;20161;-58
2022/11/04 06:14:38;;;;;;;9.52;2.62;;;7.30;99.90;;;;;;7346567;32;20110;-58
2022/11/04 06:18:40;;;;;;;6.85;2.05;;;7.20;99.90;;;;;;7347354;32;20840;-58
2022/11/04 06:22:42;;;;;;;11.05;1.70;;;7.20;99.90;;;;;;7351012;32;20669;-58
2022/11/04 06:26:44;;;;;;;8.35;1.60;;;7.20;99.90;;;;;;7341582;32;20329;-58
2022/11/04 06:30:46;;;;;;;6.00;1.52;;;7.10;99.90;;;;;;7350663;32;20523;-58
2022/11/04 06:34:48;;;;;;;5.65;1.60;;;7.20;99.90;;;;;;7347186;32;20115;-62
2022/11/04 06:38:49;;;;;;;3.45;1.58;;;7.30;99.90;;;;;;7348156;32;20104;-62
2022/11/04 06:42:51;;;;;;;8.57;1.50;;;7.30;99.90;;;;;;7345050;32;20111;-66
2022/11/04 06:46:53;;;;;;;11.23;4.53;;;7.40;99.90;;;;;;7346871;32;20785;-65
2022/11/04 06:50:54;;;;;;;11.57;5.05;;;7.50;99.90;;;;;;7353631;32;20190;-65
2022/11/04 06:54:56;;;;;;;11.15;3.08;;;7.60;99.90;;;;;;7348526;32;20698;-66
2022/11/04 06:58:58;;;;;;;8.63;2.65;;;7.70;99.90;;;;;;7349395;32;20503;-66
2022/11/04 07:03:00;;;;;;;12.48;2.50;;;7.90;99.90;;;;;;7340475;32;20134;-66
2022/11/04 07:07:01;;;;;;;7.68;1.80;;;7.90;99.90;;;;;;7346387;32;20614;-67
2022/11/04 07:11:04;;;;;;;8.40;2.20;;;8.00;99.90;;;;;;7354967;32;20108;-67
2022/11/04 07:15:06;;;;;;;7.30;2.22;;;8.10;99.90;;;;;;7345951;32;20111;-66
2022/11/04 07:19:08;;;;;;;12.88;2.05;;;8.20;99.90;;;;;;7341479;32;21429;-66
2022/11/04 07:23:09;;;;;;;16.02;2.83;;;8.30;99.90;;;;;;7346519;32;20186;-66
2022/11/04 07:27:11;;;;;;;6.97;1.60;;;8.50;99.90;;;;;;7343442;32;20629;-66
2022/11/04 07:31:13;;;;;;;7.45;2.08;;;8.50;99.90;;;;;;7348333;32;20178;-65
2022/11/04 07:35:15;;;;;;;10.00;1.98;;;8.70;99.90;;;;;;7341431;32;20296;-63
2022/11/04 07:39:16;;;;;;;4.03;1.70;;;8.70;99.90;;;;;;7349812;32;20138;-64
2022/11/04 07:43:18;;;;;;;12.82;2.67;;;8.80;99.90;;;;;;7348139;32;20575;-63
2022/11/04 07:47:20;;;;;;;6.43;1.80;;;8.90;99.90;;;;;;7349623;32;20222;-63
2022/11/04 07:51:22;;;;;;;8.63;1.65;;;9.10;99.90;;;;;;7347131;32;20110;-64
2022/11/04 07:55:24;;;;;;;8.55;1.75;;;9.20;99.90;;;;;;7348916;32;20604;-63
2022/11/04 07:59:27;;;;;;;9.95;1.65;;;9.30;99.90;;;;;;7344826;32;20138;-63
2022/11/04 08:03:28;;;;;;;6.45;1.48;;;9.40;99.90;;;;;;7347460;32;20619;-64
2022/11/04 08:07:30;;;;;;;9.48;2.00;;;9.50;99.90;;;;;;7343379;32;20816;-64
2022/11/04 08:11:32;;;;;;;10.02;1.87;;;9.60;99.90;;;;;;7344754;32;20141;-63
2022/11/04 08:15:35;;;;;;;5.50;1.70;;;9.60;99.90;;;;;;7345641;32;20652;-63
2022/11/04 08:19:36;;;;;;;8.35;1.75;;;9.80;99.90;;;;;;7345604;32;20107;-63
2022/11/04 08:23:38;;;;;;;7.65;1.70;;;9.80;99.90;;;;;;7347026;32;20145;-63
2022/11/04 08:27:40;;;;;;;8.13;2.03;;;9.90;99.90;;;;;;7347953;32;20491;-63
2022/11/04 08:31:42;;;;;;;5.47;1.73;;;9.90;99.90;;;;;;7352230;32;20138;-63
2022/11/04 08:35:44;;;;;;;7.03;1.65;;;10.00;99.90;;;;;;7352477;32;20256;-62
2022/11/04 08:39:45;;;;;;;9.23;2.25;;;10.00;99.90;;;;;;7352755;32;20141;-63
2022/11/04 08:43:47;;;;;;;5.35;1.80;;;9.90;99.90;;;;;;7346044;32;20103;-62
2022/11/04 08:47:49;;;;;;;7.35;1.37;;;10.00;99.90;;;;;;7349969;32;20107;-63
2022/11/04 08:51:59;;;;;;;6.75;1.10;;;10.00;99.90;;;;;;7346003;32;20119;-63
2022/11/04 08:56:15;;;;;;;8.00;1.70;;;10.00;99.90;;;;;;7349332;32;20110;-63
2022/11/04 09:00:16;;;;;;;6.85;1.67;;;10.00;99.90;;;;;;7347423;32;20111;-64
2022/11/04 09:04:18;;;;;;;5.95;1.30;;;10.00;99.90;;;;;;7341540;32;20127;-63
2022/11/04 09:08:20;;;;;;;4.90;1.30;;;10.00;99.90;;;;;;7346750;32;20229;-63
2022/11/04 09:12:22;;;;;;;10.07;1.73;;;10.10;99.90;;;;;;7343458;32;20125;-63
2022/11/04 09:16:23;;;;;;;10.07;1.77;;;10.20;99.90;;;;;;7342884;32;20122;-63
2022/11/04 09:20:26;;;;;;;6.35;1.60;;;10.20;99.90;;;;;;7346289;32;20641;-63
2022/11/04 09:24:28;;;;;;;9.13;1.52;;;10.30;99.90;;;;;;7345596;32;20115;-63
2022/11/04 09:28:30;;;;;;;5.62;1.40;;;10.40;99.90;;;;;;7350180;32;20119;-57
2022/11/04 09:32:32;;;;;;;4.45;1.90;;;10.50;99.90;;;;;;7350997;32;20230;-58
2022/11/04 09:36:33;;;;;;;6.03;1.42;;;10.60;99.90;;;;;;7349903;32;20198;-66
2022/11/04 09:40:36;;;;;;;7.70;1.90;;;10.70;99.90;;;;;;7353571;32;20202;-69
2022/11/04 09:44:59;;;;;;;5.80;1.67;;;10.80;99.90;;;;;;7352187;32;20789;-67
2022/11/04 09:49:23;;;;;;;5.18;1.23;;;10.90;99.90;;;;;;7350795;32;20382;-67
2022/11/04 09:53:27;;;;;;;5.65;1.50;;;11.10;99.90;;;;;;7343020;32;20202;-66
2022/11/04 09:57:29;;;;;;;9.38;1.80;;;11.20;99.90;;;;;;7354029;32;20259;-65
2022/11/04 10:01:55;;;;;;;6.90;1.20;;;11.30;99.90;;;;;;7350290;32;20111;-65
2022/11/04 10:06:28;;;;;;;5.40;1.10;;;11.50;99.90;;;;;;7350340;32;20251;-64
2022/11/04 10:11:04;;;;;;;8.30;1.75;;;11.70;99.90;;;;;;7345086;32;20103;-66
2022/11/04 10:15:27;;;;;;;7.37;1.17;;;11.80;99.90;;;;;;7329907;32;20893;-66
2022/11/04 10:19:53;;;;;;;4.45;1.30;;;11.70;99.90;;;;;;7348190;32;20103;-65
2022/11/04 10:24:16;;;;;;;3.85;0.80;;;11.60;99.90;;;;;;7346478;32;20126;-66
2022/11/04 10:28:20;;;;;;;4.80;0.95;;;11.60;99.90;;;;;;7349012;32;20764;-64
2022/11/04 10:32:39;;;;;;;4.93;1.10;;;11.60;99.90;;;;;;7348098;32;20632;-64
2022/11/04 10:36:41;;;;;;;5.97;1.20;;;11.50;99.90;;;;;;7345533;32;20528;-64
2022/11/04 10:40:50;;;;;;;4.53;1.67;;;11.40;99.90;;;;;;7348000;32;20210;-65
2022/11/04 10:44:52;;;;;;;5.75;1.42;;;11.40;99.90;;;;;;7342319;32;20128;-65
2022/11/04 10:49:03;;;;;;;5.40;1.50;;;11.30;99.90;;;;;;7352420;32;20107;-65
2022/11/04 10:53:19;;;;;;;5.75;1.62;;;11.30;99.90;;;;;;7348948;32;20115;-64
2022/11/04 10:57:24;;;;;;;7.18;1.55;;;11.40;99.90;;;;;;7341116;32;20591;-64
2022/11/04 11:01:29;;;;;;;7.15;1.37;;;11.60;99.90;;;;;;7342372;32;20233;-64
2022/11/04 11:05:31;;;;;;;4.82;1.30;;;11.90;99.90;;;;;;7339630;32;20114;-63
2022/11/04 11:09:35;;;;;;;4.68;1.35;;;11.90;99.90;;;;;;7349488;32;20102;-63
2022/11/04 11:13:43;;;;;;;9.38;1.70;;;12.00;99.90;;;;;;7348946;32;20103;-64
2022/11/04 11:17:46;;;;;;;5.82;1.37;;;12.00;99.90;;;;;;7347519;32;20108;-65
2022/11/04 11:21:50;;;;;;;8.80;2.30;;;12.00;99.90;;;;;;7346002;32;20241;-64
2022/11/04 11:25:52;;;;;;;11.40;1.92;;;11.90;99.90;;;;;;7343091;32;21871;-64
2022/11/04 11:29:55;;;;;;;9.70;1.83;;;11.80;99.90;;;;;;7341644;32;20130;-65
2022/11/04 11:33:59;;;;;;;5.35;1.45;;;11.80;99.90;;;;;;7351971;32;20151;-64
2022/11/04 11:38:03;;;;;;;8.40;1.80;;;11.80;99.90;;;;;;7346605;32;20103;-64
2022/11/04 11:42:14;;;;;;;9.68;1.70;;;11.80;99.90;;;;;;7348578;32;20170;-64
2022/11/04 11:46:26;;;;;;;10.70;2.10;;;11.80;99.90;;;;;;7352288;32;20142;-65
2022/11/04 11:50:34;;;;;;;11.27;1.98;;;11.60;99.90;;;;;;7355229;32;20127;-65
2022/11/04 11:54:37;;;;;;;8.75;2.40;;;11.60;99.90;;;;;;7354365;32;20267;-64
2022/11/04 11:58:51;;;;;;;7.70;2.28;;;11.60;99.90;;;;;;7338627;32;20134;-64
2022/11/04 12:03:29;;;;;;;7.47;1.70;;;11.50;99.90;;;;;;7337208;32;20095;-66
2022/11/04 12:08:14;;;;;;;6.07;1.92;;;11.50;99.90;;;;;;7336949;32;20126;-66
2022/11/04 12:13:00;;;;;;;6.75;2.37;;;11.50;99.90;;;;;;7346061;32;20262;-66
2022/11/04 12:17:08;;;;;;;11.80;2.10;;;11.40;99.90;;;;;;7343627;32;20137;-65
2022/11/04 12:21:20;;;;;;;8.18;1.90;;;11.40;99.90;;;;;;7340300;32;20221;-64
2022/11/04 12:25:34;;;;;;;6.40;1.50;;;11.40;99.90;;;;;;7342022;32;20215;-64
2022/11/04 12:29:51;;;;;;;7.78;1.83;;;11.30;99.90;;;;;;7346257;32;20217;-64
2022/11/04 12:34:14;;;;;;;8.68;2.95;;;11.40;99.90;;;;;;7350532;32;20174;-64
2022/11/04 12:38:34;;;;;;;6.87;2.22;;;11.50;99.90;;;;;;7342616;32;20098;-64
2022/11/04 12:42:45;;;;;;;9.82;2.28;;;11.60;99.90;;;;;;7339758;32;20194;-66
2022/11/04 12:46:55;;;;;;;9.52;2.10;;;11.60;99.90;;;;;;7352084;32;20546;-67
2022/11/04 12:51:03;;;;;;;7.62;1.95;;;11.70;99.90;;;;;;7342708;32;20114;-66
2022/11/04 12:55:19;;;;;;;11.30;2.25;;;11.90;99.90;;;;;;7351480;32;20142;-66
2022/11/04 12:59:36;;;;;;;5.33;1.43;;;11.90;99.90;;;;;;7346149;32;20206;-65
2022/11/04 13:04:22;;;;;;;6.03;1.80;;;11.80;99.90;;;;;;7351518;32;21257;-66
2022/11/04 13:08:31;;;;;;;6.65;1.60;;;11.70;99.90;;;;;;7344572;32;20111;-63
2022/11/04 13:12:41;;;;;;;5.30;1.60;;;11.80;99.90;;;;;;7347798;32;20579;-63
2022/11/04 13:16:45;;;;;;;10.15;1.87;;;11.80;99.90;;;;;;7350209;32;20876;-63
2022/11/04 13:20:51;;;;;;;10.10;2.12;;;11.90;99.90;;;;;;7352769;32;20765;-64
2022/11/04 13:24:59;;;;;;;7.33;2.37;;;11.90;99.90;;;;;;7348902;32;20575;-64
2022/11/04 13:29:13;;;;;;;7.68;2.10;;;12.20;99.90;;;;;;7359682;32;20225;-65
2022/11/04 13:33:21;;;;;;;6.60;1.80;;;13.00;99.90;;;;;;7343436;32;20107;-65
2022/11/04 13:37:38;;;;;;;6.00;1.73;;;13.50;99.90;;;;;;7352002;32;20119;-64
2022/11/04 13:41:59;;;;;;;8.35;2.40;;;13.50;99.90;;;;;;7344272;32;20103;-64
2022/11/04 13:46:01;;;;;;;7.03;1.95;;;13.10;99.90;;;;;;7350372;32;20103;-64
2022/11/04 13:50:04;;;;;;;7.80;2.12;;;13.00;99.90;;;;;;7343875;32;20550;-63
2022/11/04 13:54:27;;;;;;;4.37;1.50;;;13.20;99.90;;;;;;7343003;32;22177;-65
2022/11/04 13:58:28;;;;;;;7.90;1.80;;;13.70;99.90;;;;;;7351031;32;20113;-65
2022/11/04 14:02:57;;;;;;;9.43;2.00;;;14.40;99.90;;;;;;7345091;32;20190;-65
2022/11/04 14:07:02;;;;;;;7.25;2.30;;;15.00;99.90;;;;;;7347770;32;20115;-63
2022/11/04 14:11:09;;;;;;;10.68;4.78;;;14.90;99.90;;;;;;7350041;32;20125;-64
2022/11/04 14:15:15;;;;;;;12.02;6.47;;;14.30;99.90;;;;;;7353287;32;20099;-59
2022/11/04 14:19:54;;;;;;;11.82;4.95;;;13.80;99.90;;;;;;7340123;32;20186;-59
2022/11/04 14:24:00;;;;;;;7.22;4.37;;;13.50;99.90;;;;;;7348329;32;20217;-57
2022/11/04 14:28:08;;;;;;;12.70;4.68;;;13.40;99.90;;;;;;7342311;32;20107;-63
2022/11/04 14:32:11;;;;;;;11.55;4.57;;;13.00;99.90;;;;;;7348950;32;20886;-64
2022/11/04 14:36:26;;;;;;;9.75;4.35;;;12.90;99.90;;;;;;7351548;32;20102;-62
2022/11/04 14:40:48;;;;;;;8.65;3.35;;;12.60;99.90;;;;;;7343284;32;20475;-63
2022/11/04 14:44:50;;;;;;;8.23;3.28;;;12.50;99.90;;;;;;7348961;32;20118;-64
2022/11/04 14:48:55;;;;;;;7.45;3.40;;;12.30;99.90;;;;;;7349566;32;20213;-64
2022/11/04 14:53:02;;;;;;;10.23;2.87;;;12.10;99.90;;;;;;7346780;32;20244;-62
2022/11/04 14:57:13;;;;;;;;;;;11.90;99.90;;;;;;7347038;32;20532;-63
2022/11/04 15:01:15;;;;;;;11.05;3.08;;;11.80;99.90;;;;;;7346249;32;20006;-64
2022/11/04 15:05:27;;;;;;;9.90;3.05;;;11.70;99.90;;;;;;7343451;32;20349;-65
2022/11/04 15:09:33;;;;;;;8.77;2.50;;;11.60;99.90;;;;;;7340960;32;20107;-66
2022/11/04 15:13:37;;;;;;;14.95;2.70;;;11.60;99.90;;;;;;7341550;32;20786;-64
2022/11/04 15:17:39;;;;;;;7.85;2.53;;;11.60;99.90;;;;;;7333938;32;20512;-65
2022/11/04 15:21:46;;;;;;;9.07;2.75;;;11.50;99.90;;;;;;7342211;32;20154;-66
2022/11/04 15:25:48;;;;;;;;;;;11.50;99.90;;;;;;7338695;32;20436;-64
2022/11/04 15:30:01;;;;;;;9.55;2.37;;;11.40;99.90;;;;;;7344805;32;20410;-64
2022/11/04 15:34:06;;;;;;;10.10;2.97;;;11.40;99.90;;;;;;7338289;32;20143;-64
2022/11/04 15:38:15;;;;;;;10.80;2.83;;;11.30;99.90;;;;;;7337312;32;20204;-65
2022/11/04 15:46:52;;;;;;;11.63;3.05;;;11.00;99.90;;;;;;7350903;32;20158;-64
2022/11/04 15:51:13;;;;;;;11.43;3.53;;;10.80;99.90;;;;;;7343669;32;20154;-65
2022/11/04 15:55:21;;;;;;;5.85;2.75;;;10.60;99.90;;;;;;7344374;32;20100;-64
2022/11/04 15:59:38;;;;;;;8.82;2.80;;;10.50;99.90;;;;;;7339709;32;20103;-64
2022/11/04 16:03:53;;;;;;;5.55;2.70;;;10.30;99.90;;;;;;7350835;32;20099;-63
2022/11/04 16:08:12;;;;;;;10.30;3.08;;;10.30;99.90;;;;;;7338653;32;20207;-64
2022/11/04 16:12:26;;;;;;;7.90;3.10;;;10.10;99.90;;;;;;7340286;32;20205;-60
2022/11/04 16:16:28;;;;;;;9.00;3.17;;;10.10;99.90;;;;;;7333051;32;20115;-60
2022/11/04 16:20:31;;;;;;;9.23;3.50;;;10.00;99.90;;;;;;7339556;32;20282;-60
2022/11/04 16:24:35;;;;;;;12.60;3.45;;;9.90;99.90;;;;;;7338774;32;20228;-61
2022/11/04 16:28:39;;;;;;;14.02;4.60;;;9.90;99.90;;;;;;7338071;32;20191;-62
2022/11/04 16:32:47;;;;;;;12.37;4.60;;;9.80;99.90;;;;;;7341314;32;20261;-62
2022/11/04 16:36:49;;;;;;;12.40;4.25;;;9.80;99.90;;;;;;7338787;32;20134;-61
2022/11/04 16:40:50;;;;;;;8.07;3.85;;;9.70;99.90;;;;;;7342007;32;20103;-62
2022/11/04 16:44:59;;;;;;;6.80;3.42;;;9.70;99.90;;;;;;7344338;32;20285;-60
2022/11/04 16:49:00;;;;;;;12.93;4.72;;;9.70;99.90;;;;;;7347997;32;20707;-59
2022/11/04 16:53:02;;;;;;;9.00;4.37;;;9.70;99.90;;;;;;7348481;32;20522;-60
2022/11/04 16:57:07;;;;;;;6.68;3.92;;;9.80;99.90;;;;;;7352364;32;20107;-61
2022/11/04 17:01:12;;;;;;;10.55;4.12;;;9.80;99.90;;;;;;7344216;32;20103;-60
2022/11/04 17:05:13;;;;;;;10.55;4.12;;;9.80;99.90;;;;;;7343761;32;20238;-60
2022/11/04 17:09:20;;;;;;;8.07;4.18;;;9.80;99.90;;;;;;7346713;32;20131;-59
2022/11/04 17:13:22;;;;;;;13.65;5.57;;;9.80;99.90;;;;;;7345070;32;20130;-59
2022/11/04 17:17:24;;;;;;;12.68;5.45;;;9.80;99.90;;;;;;7342414;32;20549;-59
2022/11/04 17:21:25;;;;;;;10.20;5.43;;;9.90;99.90;;;;;;7347317;32;20099;-59
2022/11/04 17:25:28;;;;;;;11.98;5.12;;;9.80;99.90;;;;;;7348585;32;20534;-63
2022/11/04 17:29:30;;;;;;;12.25;5.15;;;9.80;99.90;;;;;;7352444;32;20844;-60
2022/11/04 17:33:32;;;;;;;9.00;5.03;;;9.70;99.90;;;;;;7338604;32;20736;-59
2022/11/04 17:37:33;;;;;;;12.73;6.15;;;9.70;99.90;;;;;;7351345;32;20210;-59
2022/11/04 17:46:32;;;;;;;14.38;4.12;;;9.50;99.90;;;;;;7339186;32;20129;-61
2022/11/04 17:50:17;;;;;;;15.68;8.25;;;9.50;99.90;;;;;;7333503;32;20186;-64
2022/11/04 17:54:20;;;;;;;16.35;10.32;;;9.40;99.90;;;;;;7332129;32;20414;-60
2022/11/04 17:58:22;;;;;;;17.62;8.18;;;9.30;99.90;;;;;;7334755;32;20125;-60
2022/11/04 18:02:24;;;;;;;12.90;6.45;;;9.20;99.90;;;;;;7349068;32;20108;-60
2022/11/04 18:06:29;;;;;;;24.92;10.20;;;9.10;99.90;;;;;;7346219;32;20182;-56
2022/11/04 18:10:31;;;;;;;18.58;8.32;;;9.10;99.90;;;;;;7333633;32;20220;-59
2022/11/04 18:14:33;;;;;;;18.60;5.53;;;9.10;99.90;;;;;;7343410;32;20103;-63
2022/11/04 18:18:34;;;;;;;15.57;6.28;;;8.90;99.90;;;;;;7334771;32;20758;-64
2022/11/04 18:22:37;;;;;;;17.55;8.80;;;8.90;99.90;;;;;;7345742;32;20193;-59
2022/11/04 18:26:39;;;;;;;17.23;8.90;;;8.90;99.90;;;;;;7333865;32;20213;-65
2022/11/04 18:30:41;;;;;;;15.40;6.95;;;8.80;99.90;;;;;;7347706;32;20126;-63
2022/11/04 18:34:43;;;;;;;10.85;6.18;;;8.70;99.90;;;;;;7356690;32;20611;-60
2022/11/04 18:38:45;;;;;;;10.05;5.68;;;8.60;99.90;;;;;;7347747;32;20096;-59
2022/11/04 18:42:47;;;;;;;13.00;5.87;;;8.60;99.90;;;;;;7349441;32;20209;-59
2022/11/04 18:46:49;;;;;;;15.50;6.50;;;8.50;99.90;;;;;;7351623;32;20095;-59
2022/11/04 18:50:51;;;;;;;12.55;6.10;;;8.40;99.90;;;;;;7347874;32;20130;-59
2022/11/04 18:54:52;;;;;;;14.40;6.35;;;8.40;99.90;;;;;;7350397;32;20095;-61
2022/11/04 18:58:54;;;;;;;14.50;5.70;;;8.30;99.90;;;;;;7351065;32;20126;-61
2022/11/04 19:02:56;;;;;;;15.05;6.28;;;8.20;99.90;;;;;;7351915;32;20130;-62
2022/11/04 19:06:57;;;;;;;14.40;6.45;;;8.20;99.90;;;;;;7350256;32;20633;-62
2022/11/04 19:11:00;;;;;;;10.57;5.85;;;8.20;99.90;;;;;;7340328;32;20098;-60
2022/11/04 19:15:03;;;;;;;12.30;5.18;;;8.10;99.90;;;;;;7349912;32;20221;-61
2022/11/04 19:19:14;;;;;;;12.35;5.55;;;8.10;99.90;;;;;;7351128;32;20103;-61
2022/11/04 19:23:15;;;;;;;12.23;5.32;;;8.10;99.90;;;;;;7347098;32;20099;-59
2022/11/04 19:27:18;;;;;;;12.65;3.92;;;8.20;99.90;;;;;;7350826;32;20646;-61
2022/11/04 19:31:23;;;;;;;12.70;4.68;;;8.20;99.90;;;;;;7343523;32;20103;-58
2022/11/04 19:35:25;;;;;;;11.02;5.07;;;8.20;99.90;;;;;;7348883;32;20124;-60
2022/11/04 19:39:26;;;;;;;11.38;4.60;;;8.20;99.90;;;;;;7350000;32;20095;-60
2022/11/04 19:43:28;;;;;;;10.95;5.50;;;8.20;99.90;;;;;;7349712;32;20224;-60
2022/11/04 19:47:30;;;;;;;15.05;5.97;;;8.10;99.90;;;;;;7349803;32;20214;-60
2022/11/04 19:51:32;;;;;;;12.25;5.95;;;8.20;99.90;;;;;;7339051;32;20095;-59
2022/11/04 19:55:34;;;;;;;12.48;5.40;;;8.20;99.90;;;;;;7342527;32;20217;-59
2022/11/04 19:59:35;;;;;;;13.32;6.15;;;8.30;99.90;;;;;;7347962;32;20099;-59
2022/11/04 20:03:38;;;;;;;11.68;5.22;;;8.30;99.90;;;;;;7342040;32;20227;-59
2022/11/04 20:07:40;;;;;;;9.75;5.40;;;8.30;99.90;;;;;;7345878;32;20246;-59
2022/11/04 20:16:12;;;;;;;9.57;6.05;;;8.40;99.90;;;;;;7347470;32;20567;-61
2022/11/04 20:20:14;;;;;;;13.40;8.00;;;8.30;99.90;;;;;;7337602;32;20222;-61
2022/11/04 20:24:16;;;;;;;15.63;6.47;;;8.30;99.90;;;;;;7348585;32;20554;-60
2022/11/04 20:28:17;;;;;;;20.42;7.53;;;8.30;99.90;;;;;;7346723;32;20781;-60
2022/11/04 20:32:19;;;;;;;14.07;7.05;;;8.30;99.90;;;;;;7348870;32;20159;-61
2022/11/04 20:36:24;;;;;;;13.18;6.12;;;8.30;99.90;;;;;;7346112;32;20172;-62
2022/11/04 20:40:25;;;;;;;14.75;6.93;;;8.40;99.90;;;;;;7341206;32;20112;-61
2022/11/04 20:44:27;;;;;;;19.85;9.63;;;8.50;99.90;;;;;;7347737;32;20177;-59
2022/11/04 20:48:29;;;;;;;16.30;9.93;;;8.50;99.90;;;;;;7345492;32;20107;-58
2022/11/04 20:52:32;;;;;;;20.00;9.48;;;8.50;99.90;;;;;;7345734;32;20131;-61
2022/11/04 20:56:36;;;;;;;12.90;8.02;;;8.50;99.90;;;;;;7345446;32;20761;-60
2022/11/04 21:00:37;;;;;;;17.05;8.75;;;8.50;99.90;;;;;;7343186;32;20496;-60
2022/11/04 21:04:39;;;;;;;16.12;8.35;;;8.50;99.90;;;;;;7345231;32;20284;-60
2022/11/04 21:08:41;;;;;;;18.98;8.55;;;8.60;99.90;;;;;;7339056;32;20177;-61
2022/11/04 21:12:42;;;;;;;14.20;8.75;;;8.60;99.90;;;;;;7355297;32;20125;-60
2022/11/04 21:16:45;;;;;;;12.18;8.60;;;8.60;99.90;;;;;;7354601;32;20241;-60
2022/11/04 21:20:48;;;;;;;18.27;8.55;;;8.60;99.90;;;;;;7353643;32;20265;-61
2022/11/04 21:24:49;;;;;;;15.27;6.82;;;8.60;99.90;;;;;;7361197;32;20190;-60
2022/11/04 21:29:02;;;;;;;13.15;6.05;;;8.60;99.90;;;;;;7350319;32;20713;-60
2022/11/04 21:33:04;;;;;;;16.50;9.90;;;8.50;99.90;;;;;;7352765;32;20103;-60
2022/11/04 21:37:05;;;;;;;13.85;9.15;;;8.40;99.90;;;;;;7348789;32;20098;-60
2022/11/04 21:41:17;;;;;;;15.40;6.55;;;8.30;99.90;;;;;;7350648;32;20489;-60
2022/11/04 21:45:18;;;;;;;12.73;6.60;;;8.20;99.90;;;;;;7348304;32;20190;-60
2022/11/04 21:49:20;;;;;;;11.02;6.82;;;8.10;99.90;;;;;;7350969;32;20106;-62
2022/11/04 21:53:22;;;;;;;14.73;8.10;;;8.10;99.90;;;;;;7353851;32;20177;-60
2022/11/04 21:57:24;;;;;;;13.48;7.57;;;8.00;99.90;;;;;;7353001;32;20209;-60
2022/11/04 22:01:27;;;;;;;12.18;6.93;;;7.90;99.90;;;;;;7351380;32;20209;-60